sensor_id;sensor_type;location;lat;lon;timestamp;pressure;altitude;pressure_sealevel;temperature;humidity
1480;BME280;732;51.698;4.886;2023-04-01T00:01:17;99279.28;;;6.43;86.14
1480;BME280;732;51.698;4.886;2023-04-01T00:03:46;99282.81;;;6.43;86.81
1480;BME280;732;51.698;4.886;2023-04-01T00:06:17;99273.41;;;6.26;87.07
1480;BME280;732;51.698;4.886;2023-04-01T00:08:47;99281.59;;;6.24;87.24
1480;BME280;732;51.698;4.886;2023-04-01T00:11:18;99275.13;;;6.33;86.79
1480;BME280;732;51.698;4.886;2023-04-01T00:13:47;99252.25;;;6.17;86.96
1480;BME280;732;51.698;4.886;2023-04-01T00:16:16;99284.19;;;6.17;87.04
1480;BME280;732;51.698;4.886;2023-04-01T00:18:49;99243.97;;;5.84;87.20
1480;BME280;732;51.698;4.886;2023-04-01T00:21:19;99061.16;;;4.78;86.97
1480;BME280;732;51.698;4.886;2023-04-01T00:23:50;99097.84;;;4.89;87.17
1480;BME280;732;51.698;4.886;2023-04-01T00:26:20;99262.94;;;5.96;86.70
1480;BME280;732;51.698;4.886;2023-04-01T00:28:50;99298.16;;;6.19;86.57
1480;BME280;732;51.698;4.886;2023-04-01T00:31:19;99231.44;;;5.78;86.37
1480;BME280;732;51.698;4.886;2023-04-01T00:33:47;99310.50;;;6.27;86.16
1480;BME280;732;51.698;4.886;2023-04-01T00:36:19;99300.69;;;6.06;86.89
1480;BME280;732;51.698;4.886;2023-04-01T00:38:50;99182.84;;;5.26;86.57
1480;BME280;732;51.698;4.886;2023-04-01T00:41:20;99319.97;;;6.08;86.83
1480;BME280;732;51.698;4.886;2023-04-01T00:46:36;99314.38;;;6.03;87.19
1480;BME280;732;51.698;4.886;2023-04-01T00:49:04;99272.50;;;5.68;87.40
1480;BME280;732;51.698;4.886;2023-04-01T00:51:33;99324.47;;;6.08;86.99
1480;BME280;732;51.698;4.886;2023-04-01T00:54:05;99326.16;;;6.15;86.62
1480;BME280;732;51.698;4.886;2023-04-01T00:56:36;99254.81;;;5.61;86.33
1480;BME280;732;51.698;4.886;2023-04-01T00:59:13;99291.19;;;5.75;86.37
1480;BME280;732;51.698;4.886;2023-04-01T01:01:42;99332.72;;;5.91;86.49
1480;BME280;732;51.698;4.886;2023-04-01T01:04:23;99297.00;;;5.42;87.62
1480;BME280;732;51.698;4.886;2023-04-01T01:07:02;99335.72;;;5.66;87.64
1480;BME280;732;51.698;4.886;2023-04-01T01:09:43;99347.13;;;5.60;87.85
1480;BME280;732;51.698;4.886;2023-04-01T01:12:19;99315.66;;;5.64;87.32
1480;BME280;732;51.698;4.886;2023-04-01T01:14:58;99284.66;;;5.56;86.54
1480;BME280;732;51.698;4.886;2023-04-01T01:17:42;99339.50;;;5.72;87.28
1480;BME280;732;51.698;4.886;2023-04-01T01:20:56;99319.88;;;5.58;87.27
1480;BME280;732;51.698;4.886;2023-04-01T01:24:08;99344.25;;;5.62;87.56
1480;BME280;732;51.698;4.886;2023-04-01T01:26:58;99313.50;;;5.37;87.44
1480;BME280;732;51.698;4.886;2023-04-01T01:30:13;99266.78;;;5.13;87.42
1480;BME280;732;51.698;4.886;2023-04-01T01:33:25;99323.47;;;5.50;87.69
1480;BME280;732;51.698;4.886;2023-04-01T01:36:04;99335.09;;;5.64;87.57
1480;BME280;732;51.698;4.886;2023-04-01T01:38:35;99305.44;;;5.31;87.68
1480;BME280;732;51.698;4.886;2023-04-01T01:41:07;99348.88;;;5.53;87.89
1480;BME280;732;51.698;4.886;2023-04-01T01:43:39;99223.22;;;4.78;87.68
1480;BME280;732;51.698;4.886;2023-04-01T01:46:14;99295.63;;;5.31;87.64
1480;BME280;732;51.698;4.886;2023-04-01T01:48:46;99276.31;;;5.22;87.40
1480;BME280;732;51.698;4.886;2023-04-01T01:51:17;99272.75;;;5.15;87.39
1480;BME280;732;51.698;4.886;2023-04-01T01:53:46;99367.41;;;5.61;87.92
1480;BME280;732;51.698;4.886;2023-04-01T01:56:18;99362.72;;;5.63;87.47
1480;BME280;732;51.698;4.886;2023-04-01T01:58:51;99320.31;;;5.25;87.71
1480;BME280;732;51.698;4.886;2023-04-01T02:01:25;99314.09;;;5.18;88.10
1480;BME280;732;51.698;4.886;2023-04-01T02:03:59;99369.44;;;5.44;87.95
1480;BME280;732;51.698;4.886;2023-04-01T02:06:34;99367.84;;;5.65;87.62
1480;BME280;732;51.698;4.886;2023-04-01T02:09:06;99327.00;;;5.36;87.52
1480;BME280;732;51.698;4.886;2023-04-01T02:11:43;99371.75;;;5.47;87.73
1480;BME280;732;51.698;4.886;2023-04-01T02:14:16;99378.72;;;5.48;88.00
1480;BME280;732;51.698;4.886;2023-04-01T02:16:49;99324.63;;;5.26;88.02
1480;BME280;732;51.698;4.886;2023-04-01T02:19:22;99377.69;;;5.49;88.04
1480;BME280;732;51.698;4.886;2023-04-01T02:21:58;99355.69;;;5.26;87.76
1480;BME280;732;51.698;4.886;2023-04-01T02:24:30;99379.72;;;5.32;88.32
1480;BME280;732;51.698;4.886;2023-04-01T02:26:59;99389.22;;;5.57;87.77
1480;BME280;732;51.698;4.886;2023-04-01T02:29:30;99244.66;;;4.61;88.01
1480;BME280;732;51.698;4.886;2023-04-01T02:31:59;99354.31;;;5.45;87.28
1480;BME280;732;51.698;4.886;2023-04-01T02:34:28;99368.34;;;5.53;87.04
1480;BME280;732;51.698;4.886;2023-04-01T02:37:00;99390.97;;;5.64;87.25
1480;BME280;732;51.698;4.886;2023-04-01T02:39:29;99302.28;;;4.90;87.93
1480;BME280;732;51.698;4.886;2023-04-01T02:41:58;99385.03;;;5.47;87.70
1480;BME280;732;51.698;4.886;2023-04-01T02:44:26;99207.06;;;4.19;87.86
1480;BME280;732;51.698;4.886;2023-04-01T02:46:55;99334.91;;;4.99;87.66
1480;BME280;732;51.698;4.886;2023-04-01T02:49:23;99395.22;;;5.44;88.20
1480;BME280;732;51.698;4.886;2023-04-01T02:51:52;99263.53;;;4.51;87.70
1480;BME280;732;51.698;4.886;2023-04-01T02:54:22;99418.69;;;5.40;87.76
1480;BME280;732;51.698;4.886;2023-04-01T02:56:50;99417.03;;;5.24;88.07
1480;BME280;732;51.698;4.886;2023-04-01T02:59:19;99413.94;;;5.35;88.10
1480;BME280;732;51.698;4.886;2023-04-01T03:01:47;99386.06;;;5.16;88.34
1480;BME280;732;51.698;4.886;2023-04-01T03:04:16;99416.31;;;5.45;87.44
1480;BME280;732;51.698;4.886;2023-04-01T03:06:44;99401.56;;;5.28;87.65
1480;BME280;732;51.698;4.886;2023-04-01T03:09:13;99417.03;;;5.24;87.96
1480;BME280;732;51.698;4.886;2023-04-01T03:11:43;99257.44;;;4.28;87.58
1480;BME280;732;51.698;4.886;2023-04-01T03:14:12;99435.84;;;5.37;87.87
1480;BME280;732;51.698;4.886;2023-04-01T03:16:40;99441.44;;;5.28;87.71
1480;BME280;732;51.698;4.886;2023-04-01T03:19:09;99436.94;;;5.28;88.24
1480;BME280;732;51.698;4.886;2023-04-01T03:21:37;99446.38;;;5.31;88.09
1480;BME280;732;51.698;4.886;2023-04-01T03:24:06;99347.34;;;4.69;88.12
1480;BME280;732;51.698;4.886;2023-04-01T03:26:35;99247.09;;;3.94;88.35
1480;BME280;732;51.698;4.886;2023-04-01T03:29:05;99400.88;;;4.96;88.23
1480;BME280;732;51.698;4.886;2023-04-01T03:31:33;99305.59;;;4.39;88.02
1480;BME280;732;51.698;4.886;2023-04-01T03:34:02;99455.28;;;5.23;88.29
1480;BME280;732;51.698;4.886;2023-04-01T03:36:30;99418.31;;;4.98;88.20
1480;BME280;732;51.698;4.886;2023-04-01T03:38:59;99410.44;;;4.90;88.67
1480;BME280;732;51.698;4.886;2023-04-01T03:41:36;99405.66;;;4.85;88.54
1480;BME280;732;51.698;4.886;2023-04-01T03:44:06;99443.09;;;5.14;88.06
1480;BME280;732;51.698;4.886;2023-04-01T03:46:35;99429.25;;;5.03;88.34
1480;BME280;732;51.698;4.886;2023-04-01T03:49:09;99459.22;;;5.12;88.55
1480;BME280;732;51.698;4.886;2023-04-01T03:51:40;99424.63;;;4.82;88.30
1480;BME280;732;51.698;4.886;2023-04-01T03:54:10;99188.22;;;3.38;88.57
1480;BME280;732;51.698;4.886;2023-04-01T03:56:38;99471.16;;;5.31;88.36
1480;BME280;732;51.698;4.886;2023-04-01T03:59:08;99416.22;;;4.94;87.92
1480;BME280;732;51.698;4.886;2023-04-01T04:01:37;99334.25;;;4.67;87.57
1480;BME280;732;51.698;4.886;2023-04-01T04:04:06;99475.47;;;5.47;87.24
1480;BME280;732;51.698;4.886;2023-04-01T04:06:35;99481.63;;;5.48;87.17
1480;BME280;732;51.698;4.886;2023-04-01T04:09:04;99479.06;;;5.39;87.71
1480;BME280;732;51.698;4.886;2023-04-01T04:11:32;99484.72;;;5.21;88.41
1480;BME280;732;51.698;4.886;2023-04-01T04:14:01;99495.88;;;5.17;88.89
1480;BME280;732;51.698;4.886;2023-04-01T04:16:31;99493.50;;;5.22;88.61
1480;BME280;732;51.698;4.886;2023-04-01T04:19:02;99442.69;;;5.02;88.16
1480;BME280;732;51.698;4.886;2023-04-01T04:21:30;99415.81;;;4.82;87.86
1480;BME280;732;51.698;4.886;2023-04-01T04:24:00;99510.13;;;5.39;87.60
1480;BME280;732;51.698;4.886;2023-04-01T04:26:46;99503.44;;;5.43;88.09
1480;BME280;732;51.698;4.886;2023-04-01T04:29:15;99477.38;;;5.09;88.55
1480;BME280;732;51.698;4.886;2023-04-01T04:31:44;99515.44;;;5.24;88.72
1480;BME280;732;51.698;4.886;2023-04-01T04:34:13;99486.91;;;5.18;88.36
1480;BME280;732;51.698;4.886;2023-04-01T04:36:43;99519.25;;;5.45;87.91
1480;BME280;732;51.698;4.886;2023-04-01T04:39:11;99527.38;;;5.43;88.50
1480;BME280;732;51.698;4.886;2023-04-01T04:41:41;99468.81;;;5.13;87.79
1480;BME280;732;51.698;4.886;2023-04-01T04:44:10;99502.69;;;5.34;87.56
1480;BME280;732;51.698;4.886;2023-04-01T04:46:39;99495.84;;;5.40;87.88
1480;BME280;732;51.698;4.886;2023-04-01T04:49:18;99536.22;;;5.74;87.33
1480;BME280;732;51.698;4.886;2023-04-01T04:51:46;99540.63;;;5.66;87.66
1480;BME280;732;51.698;4.886;2023-04-01T04:54:21;99427.84;;;4.93;87.10
1480;BME280;732;51.698;4.886;2023-04-01T04:56:55;99559.22;;;5.51;88.42
1480;BME280;732;51.698;4.886;2023-04-01T04:59:26;99544.72;;;5.39;88.23
1480;BME280;732;51.698;4.886;2023-04-01T05:02:03;99523.38;;;5.47;87.09
1480;BME280;732;51.698;4.886;2023-04-01T05:04:36;99536.09;;;5.67;86.75
1480;BME280;732;51.698;4.886;2023-04-01T05:07:08;99581.28;;;5.90;87.02
1480;BME280;732;51.698;4.886;2023-04-01T05:09:36;99554.66;;;5.75;86.71
1480;BME280;732;51.698;4.886;2023-04-01T05:12:05;99582.22;;;5.97;86.43
1480;BME280;732;51.698;4.886;2023-04-01T05:14:52;99545.47;;;5.63;86.79
1480;BME280;732;51.698;4.886;2023-04-01T05:17:21;99594.59;;;5.90;87.01
1480;BME280;732;51.698;4.886;2023-04-01T05:19:51;99598.84;;;5.99;87.03
1480;BME280;732;51.698;4.886;2023-04-01T05:22:20;99560.44;;;5.79;86.59
1480;BME280;732;51.698;4.886;2023-04-01T05:24:48;99604.03;;;6.08;86.11
1480;BME280;732;51.698;4.886;2023-04-01T05:27:17;99490.53;;;5.02;87.50
1480;BME280;732;51.698;4.886;2023-04-01T05:29:45;99495.84;;;5.02;87.51
1480;BME280;732;51.698;4.886;2023-04-01T05:32:37;99596.59;;;5.73;87.52
1480;BME280;732;51.698;4.886;2023-04-01T05:35:08;99568.41;;;5.64;87.18
1480;BME280;732;51.698;4.886;2023-04-01T05:37:37;99615.91;;;6.05;86.90
1480;BME280;732;51.698;4.886;2023-04-01T05:40:07;99604.44;;;6.04;86.05
1480;BME280;732;51.698;4.886;2023-04-01T05:42:36;99622.59;;;6.31;85.75
1480;BME280;732;51.698;4.886;2023-04-01T05:45:07;99625.19;;;6.39;85.46
1480;BME280;732;51.698;4.886;2023-04-01T05:48:05;99600.84;;;5.97;85.68
1480;BME280;732;51.698;4.886;2023-04-01T05:50:41;99636.72;;;6.31;85.32
1480;BME280;732;51.698;4.886;2023-04-01T05:53:11;99580.00;;;5.71;85.64
1480;BME280;732;51.698;4.886;2023-04-01T05:55:42;99603.81;;;5.64;86.64
1480;BME280;732;51.698;4.886;2023-04-01T05:58:10;99660.69;;;5.86;86.75
1480;BME280;732;51.698;4.886;2023-04-01T06:00:42;99661.34;;;6.03;86.60
1480;BME280;732;51.698;4.886;2023-04-01T06:03:12;99668.22;;;5.98;86.42
1480;BME280;732;51.698;4.886;2023-04-01T06:05:43;99652.09;;;5.99;86.16
1480;BME280;732;51.698;4.886;2023-04-01T06:08:14;99671.91;;;6.12;85.62
1480;BME280;732;51.698;4.886;2023-04-01T06:11:03;99680.53;;;6.14;85.68
1480;BME280;732;51.698;4.886;2023-04-01T06:13:56;99649.69;;;6.19;85.08
1480;BME280;732;51.698;4.886;2023-04-01T06:16:42;99528.75;;;5.39;85.27
1480;BME280;732;51.698;4.886;2023-04-01T06:19:24;99676.59;;;6.10;85.87
1480;BME280;732;51.698;4.886;2023-04-01T06:22:20;99701.31;;;6.18;85.88
1480;BME280;732;51.698;4.886;2023-04-01T06:28:35;99704.63;;;6.20;85.80
1480;BME280;732;51.698;4.886;2023-04-01T06:31:23;99500.41;;;4.93;85.21
1480;BME280;732;51.698;4.886;2023-04-01T06:34:12;99713.97;;;6.31;85.48
1480;BME280;732;51.698;4.886;2023-04-01T06:37:05;99685.13;;;6.05;84.89
1480;BME280;732;51.698;4.886;2023-04-01T06:39:59;99695.31;;;6.16;85.51
1480;BME280;732;51.698;4.886;2023-04-01T06:42:53;99734.66;;;6.29;84.88
1480;BME280;732;51.698;4.886;2023-04-01T06:45:51;99722.81;;;6.32;85.11
1480;BME280;732;51.698;4.886;2023-04-01T06:49:00;99742.25;;;6.41;84.52
1480;BME280;732;51.698;4.886;2023-04-01T06:51:47;99664.56;;;6.14;84.54
1480;BME280;732;51.698;4.886;2023-04-01T06:54:43;99608.88;;;5.59;83.83
1480;BME280;732;51.698;4.886;2023-04-01T06:57:50;99645.13;;;5.60;84.67
1480;BME280;732;51.698;4.886;2023-04-01T07:00:29;99588.41;;;5.21;84.90
1480;BME280;732;51.698;4.886;2023-04-01T07:03:07;99733.81;;;6.14;84.33
1480;BME280;732;51.698;4.886;2023-04-01T07:05:43;99766.63;;;6.29;84.44
1480;BME280;732;51.698;4.886;2023-04-01T07:08:18;99743.38;;;6.08;84.13
1480;BME280;732;51.698;4.886;2023-04-01T07:10:55;99764.50;;;6.25;84.71
1480;BME280;732;51.698;4.886;2023-04-01T07:13:48;99737.72;;;6.41;83.93
1480;BME280;732;51.698;4.886;2023-04-01T07:16:23;99783.22;;;6.70;83.20
1480;BME280;732;51.698;4.886;2023-04-01T07:18:57;99760.97;;;6.62;83.17
1480;BME280;732;51.698;4.886;2023-04-01T07:21:47;99780.47;;;6.78;83.01
1480;BME280;732;51.698;4.886;2023-04-01T07:24:29;99574.97;;;5.38;82.90
1480;BME280;732;51.698;4.886;2023-04-01T07:27:11;99736.81;;;6.64;82.53
1480;BME280;732;51.698;4.886;2023-04-01T07:29:41;99631.31;;;5.80;82.16
1480;BME280;732;51.698;4.886;2023-04-01T07:32:31;99756.13;;;6.66;82.28
1480;BME280;732;51.698;4.886;2023-04-01T07:35:16;99724.16;;;6.28;82.54
1480;BME280;732;51.698;4.886;2023-04-01T07:38:03;99687.44;;;6.23;82.30
1480;BME280;732;51.698;4.886;2023-04-01T07:40:42;99646.38;;;6.02;81.77
1480;BME280;732;51.698;4.886;2023-04-01T07:43:39;99784.91;;;6.86;81.26
1480;BME280;732;51.698;4.886;2023-04-01T07:46:45;99787.09;;;6.82;81.69
1480;BME280;732;51.698;4.886;2023-04-01T07:49:24;99825.34;;;7.04;81.68
1480;BME280;732;51.698;4.886;2023-04-01T07:51:59;99817.78;;;7.08;81.75
1480;BME280;732;51.698;4.886;2023-04-01T07:54:40;99700.63;;;6.55;81.58
1480;BME280;732;51.698;4.886;2023-04-01T07:57:18;99829.25;;;7.38;81.11
1480;BME280;732;51.698;4.886;2023-04-01T08:00:00;99827.44;;;7.24;81.12
1480;BME280;732;51.698;4.886;2023-04-01T08:03:23;99798.97;;;7.46;79.99
1480;BME280;732;51.698;4.886;2023-04-01T08:06:03;99811.09;;;7.48;80.20
1480;BME280;732;51.698;4.886;2023-04-01T08:08:46;99849.47;;;7.99;79.46
1480;BME280;732;51.698;4.886;2023-04-01T08:12:08;99845.03;;;7.91;79.21
1480;BME280;732;51.698;4.886;2023-04-01T08:15:11;99860.00;;;7.71;79.51
1480;BME280;732;51.698;4.886;2023-04-01T08:18:20;99815.25;;;7.36;80.18
1480;BME280;732;51.698;4.886;2023-04-01T08:20:57;99821.34;;;7.30;80.63
1480;BME280;732;51.698;4.886;2023-04-01T08:23:28;99843.56;;;7.52;79.92
1480;BME280;732;51.698;4.886;2023-04-01T08:26:04;99835.03;;;7.78;79.50
1480;BME280;732;51.698;4.886;2023-04-01T08:28:43;99867.59;;;8.25;78.86
1480;BME280;732;51.698;4.886;2023-04-01T08:31:18;99856.13;;;8.32;77.66
1480;BME280;732;51.698;4.886;2023-04-01T08:33:49;99864.38;;;7.93;78.13
1480;BME280;732;51.698;4.886;2023-04-01T08:36:24;99885.94;;;7.92;79.01
1480;BME280;732;51.698;4.886;2023-04-01T08:39:12;99884.94;;;8.14;79.05
1480;BME280;732;51.698;4.886;2023-04-01T08:42:33;99865.84;;;7.96;78.84
1480;BME280;732;51.698;4.886;2023-04-01T08:45:30;99901.38;;;8.11;78.74
1480;BME280;732;51.698;4.886;2023-04-01T08:48:41;99906.81;;;8.03;79.34
1480;BME280;732;51.698;4.886;2023-04-01T08:51:45;99907.06;;;7.72;79.23
1480;BME280;732;51.698;4.886;2023-04-01T09:01:43;99866.88;;;7.43;79.40
1480;BME280;732;51.698;4.886;2023-04-01T09:04:57;99887.56;;;7.41;79.98
1480;BME280;732;51.698;4.886;2023-04-01T09:07:40;99818.34;;;6.88;79.52
1480;BME280;732;51.698;4.886;2023-04-01T09:10:29;99899.09;;;7.42;79.73
1480;BME280;732;51.698;4.886;2023-04-01T09:17:37;99946.56;;;7.76;79.50
1480;BME280;732;51.698;4.886;2023-04-01T09:20:39;99833.44;;;6.81;79.63
1480;BME280;732;51.698;4.886;2023-04-01T09:23:29;99921.72;;;7.46;79.77
1480;BME280;732;51.698;4.886;2023-04-01T09:26:42;99954.00;;;7.66;79.62
1480;BME280;732;51.698;4.886;2023-04-01T09:29:27;99952.78;;;7.98;78.72
1480;BME280;732;51.698;4.886;2023-04-01T09:32:42;99947.09;;;7.87;78.37
1480;BME280;732;51.698;4.886;2023-04-01T09:35:26;99958.63;;;7.72;79.16
1480;BME280;732;51.698;4.886;2023-04-01T09:38:20;99943.34;;;7.51;79.35
1480;BME280;732;51.698;4.886;2023-04-01T09:40:56;99952.09;;;7.60;79.31
1480;BME280;732;51.698;4.886;2023-04-01T09:43:53;99932.06;;;7.34;80.16
1480;BME280;732;51.698;4.886;2023-04-01T09:46:58;99967.47;;;7.58;80.33
1480;BME280;732;51.698;4.886;2023-04-01T09:49:51;99966.28;;;7.45;80.53
1480;BME280;732;51.698;4.886;2023-04-01T09:52:43;99981.44;;;7.75;80.12
1480;BME280;732;51.698;4.886;2023-04-01T09:56:23;99981.81;;;7.72;79.59
1480;BME280;732;51.698;4.886;2023-04-01T10:06:18;99975.03;;;7.39;80.18
1480;BME280;732;51.698;4.886;2023-04-01T10:13:16;100002.78;;;7.45;80.98
1480;BME280;732;51.698;4.886;2023-04-01T10:20:01;99996.09;;;7.64;80.90
1480;BME280;732;51.698;4.886;2023-04-01T10:26:32;99999.66;;;7.86;80.15
1480;BME280;732;51.698;4.886;2023-04-01T10:33:38;100009.97;;;7.89;79.76
1480;BME280;732;51.698;4.886;2023-04-01T10:36:47;99996.25;;;7.77;79.85
1480;BME280;732;51.698;4.886;2023-04-01T10:39:53;100014.94;;;8.07;79.10
1480;BME280;732;51.698;4.886;2023-04-01T10:43:41;100021.13;;;7.93;79.24
1480;BME280;732;51.698;4.886;2023-04-01T10:53:21;99987.63;;;7.75;79.74
1480;BME280;732;51.698;4.886;2023-04-01T10:56:40;99997.56;;;7.52;81.69
1480;BME280;732;51.698;4.886;2023-04-01T11:00:11;100022.69;;;7.87;80.96
1480;BME280;732;51.698;4.886;2023-04-01T11:04:01;100026.09;;;8.11;80.75
1480;BME280;732;51.698;4.886;2023-04-01T11:13:47;100035.03;;;7.58;82.00
1480;BME280;732;51.698;4.886;2023-04-01T11:23:43;99989.06;;;7.18;81.81
1480;BME280;732;51.698;4.886;2023-04-01T11:26:45;99980.97;;;7.26;81.50
1480;BME280;732;51.698;4.886;2023-04-01T11:29:57;99781.94;;;6.12;81.21
1480;BME280;732;51.698;4.886;2023-04-01T11:32:44;99893.28;;;6.78;80.63
1480;BME280;732;51.698;4.886;2023-04-01T11:35:34;100061.38;;;7.76;80.24
1480;BME280;732;51.698;4.886;2023-04-01T11:38:23;100056.13;;;7.83;80.80
1480;BME280;732;51.698;4.886;2023-04-01T11:41:10;100036.50;;;7.61;81.72
1480;BME280;732;51.698;4.886;2023-04-01T11:44:17;100044.13;;;7.34;81.32
1480;BME280;732;51.698;4.886;2023-04-01T11:47:22;100060.63;;;7.53;81.11
1480;BME280;732;51.698;4.886;2023-04-01T11:50:11;100057.97;;;7.53;81.25
1480;BME280;732;51.698;4.886;2023-04-01T11:53:15;100080.19;;;7.45;81.26
1480;BME280;732;51.698;4.886;2023-04-01T11:55:58;100071.13;;;7.54;81.36
1480;BME280;732;51.698;4.886;2023-04-01T11:59:06;100092.38;;;7.62;81.00
1480;BME280;732;51.698;4.886;2023-04-01T12:01:56;100086.16;;;7.70;81.20
1480;BME280;732;51.698;4.886;2023-04-01T12:05:24;100099.75;;;7.60;81.32
1480;BME280;732;51.698;4.886;2023-04-01T12:08:24;100107.84;;;7.67;81.41
1480;BME280;732;51.698;4.886;2023-04-01T12:11:03;100071.75;;;7.56;81.14
1480;BME280;732;51.698;4.886;2023-04-01T12:13:42;100067.16;;;7.65;81.14
1480;BME280;732;51.698;4.886;2023-04-01T12:16:45;100115.19;;;8.03;80.49
1480;BME280;732;51.698;4.886;2023-04-01T12:19:26;100110.13;;;8.08;80.43
1480;BME280;732;51.698;4.886;2023-04-01T12:22:14;100109.34;;;7.85;80.22
1480;BME280;732;51.698;4.886;2023-04-01T12:24:51;99969.44;;;6.96;80.42
1480;BME280;732;51.698;4.886;2023-04-01T12:27:37;100071.38;;;7.44;80.50
1480;BME280;732;51.698;4.886;2023-04-01T12:30:39;100099.16;;;7.12;80.79
1480;BME280;732;51.698;4.886;2023-04-01T12:33:48;100102.47;;;7.14;81.84
1480;BME280;732;51.698;4.886;2023-04-01T12:36:40;100134.91;;;7.49;81.95
1480;BME280;732;51.698;4.886;2023-04-01T12:39:37;100141.44;;;7.46;81.54
1480;BME280;732;51.698;4.886;2023-04-01T12:42:28;100138.38;;;7.49;81.86
1480;BME280;732;51.698;4.886;2023-04-01T12:48:39;100146.38;;;7.73;81.39
1480;BME280;732;51.698;4.886;2023-04-01T12:51:34;100136.75;;;7.63;81.56
1480;BME280;732;51.698;4.886;2023-04-01T12:58:06;100159.03;;;7.56;81.82
1480;BME280;732;51.698;4.886;2023-04-01T13:01:30;100121.38;;;7.51;81.72
1480;BME280;732;51.698;4.886;2023-04-01T13:04:41;100166.75;;;7.51;81.76
1480;BME280;732;51.698;4.886;2023-04-01T13:07:28;100167.09;;;7.47;82.18
1480;BME280;732;51.698;4.886;2023-04-01T13:10:09;100179.91;;;7.52;82.16
1480;BME280;732;51.698;4.886;2023-04-01T13:13:06;100179.56;;;7.55;81.74
1480;BME280;732;51.698;4.886;2023-04-01T13:15:42;100177.22;;;7.52;81.31
1480;BME280;732;51.698;4.886;2023-04-01T13:18:24;100188.38;;;7.56;81.85
1480;BME280;732;51.698;4.886;2023-04-01T13:21:05;100170.34;;;7.35;82.78
1480;BME280;732;51.698;4.886;2023-04-01T13:23:49;100173.66;;;7.60;82.07
1480;BME280;732;51.698;4.886;2023-04-01T13:26:28;100191.91;;;7.71;81.86
1480;BME280;732;51.698;4.886;2023-04-01T13:29:07;100179.28;;;7.65;82.02
1480;BME280;732;51.698;4.886;2023-04-01T13:31:54;100168.25;;;7.68;80.79
1480;BME280;732;51.698;4.886;2023-04-01T13:34:37;100144.59;;;7.80;80.08
1480;BME280;732;51.698;4.886;2023-04-01T13:37:32;100163.19;;;7.73;80.21
1480;BME280;732;51.698;4.886;2023-04-01T13:40:23;100062.25;;;7.00;80.16
1480;BME280;732;51.698;4.886;2023-04-01T13:42:59;100186.50;;;7.79;80.09
1480;BME280;732;51.698;4.886;2023-04-01T13:45:42;100028.09;;;6.96;79.99
1480;BME280;732;51.698;4.886;2023-04-01T13:48:28;100188.19;;;8.19;79.82
1480;BME280;732;51.698;4.886;2023-04-01T13:58:07;100204.38;;;8.17;79.67
1480;BME280;732;51.698;4.886;2023-04-01T14:00:47;100224.41;;;8.21;79.42
1480;BME280;732;51.698;4.886;2023-04-01T14:03:30;100198.56;;;7.98;79.62
1480;BME280;732;51.698;4.886;2023-04-01T14:06:14;100225.56;;;7.80;80.04
1480;BME280;732;51.698;4.886;2023-04-01T14:12:19;100206.50;;;7.45;80.73
1480;BME280;732;51.698;4.886;2023-04-01T14:15:07;100142.06;;;7.02;80.89
1480;BME280;732;51.698;4.886;2023-04-01T14:18:22;100212.13;;;7.51;81.12
1480;BME280;732;51.698;4.886;2023-04-01T14:21:12;100253.88;;;7.67;81.26
1480;BME280;732;51.698;4.886;2023-04-01T14:24:18;100255.91;;;7.64;81.33
1480;BME280;732;51.698;4.886;2023-04-01T14:27:37;100247.28;;;7.31;81.40
1480;BME280;732;51.698;4.886;2023-04-01T14:30:23;100250.41;;;7.35;82.10
1480;BME280;732;51.698;4.886;2023-04-01T14:33:04;100206.59;;;6.97;81.98
1480;BME280;732;51.698;4.886;2023-04-01T14:35:39;100262.63;;;7.29;82.26
1480;BME280;732;51.698;4.886;2023-04-01T14:38:31;100181.91;;;6.72;82.41
1480;BME280;732;51.698;4.886;2023-04-01T14:41:17;100262.00;;;7.19;82.64
1480;BME280;732;51.698;4.886;2023-04-01T14:44:06;100209.78;;;6.93;82.93
1480;BME280;732;51.698;4.886;2023-04-01T14:49:48;100279.16;;;7.24;82.48
1480;BME280;732;51.698;4.886;2023-04-01T14:52:26;100277.00;;;7.28;82.98
1480;BME280;732;51.698;4.886;2023-04-01T14:54:57;100236.00;;;6.89;82.58
1480;BME280;732;51.698;4.886;2023-04-01T14:57:29;100292.44;;;7.32;82.56
1480;BME280;732;51.698;4.886;2023-04-01T15:00:12;100248.09;;;7.00;82.83
1480;BME280;732;51.698;4.886;2023-04-01T15:02:51;100287.78;;;7.03;82.89
1480;BME280;732;51.698;4.886;2023-04-01T15:05:36;100246.44;;;6.51;84.05
1480;BME280;732;51.698;4.886;2023-04-01T15:08:16;100280.53;;;6.80;84.07
1480;BME280;732;51.698;4.886;2023-04-01T15:11:16;100288.94;;;7.40;83.53
1480;BME280;732;51.698;4.886;2023-04-01T15:14:18;100304.69;;;7.50;83.04
1480;BME280;732;51.698;4.886;2023-04-01T15:17:02;100316.56;;;7.47;82.60
1480;BME280;732;51.698;4.886;2023-04-01T15:19:44;100321.72;;;7.80;82.16
1480;BME280;732;51.698;4.886;2023-04-01T15:22:50;100323.66;;;7.87;81.74
1480;BME280;732;51.698;4.886;2023-04-01T15:25:41;100326.13;;;7.65;81.96
1480;BME280;732;51.698;4.886;2023-04-01T15:28:24;100254.91;;;7.03;82.28
1480;BME280;732;51.698;4.886;2023-04-01T15:31:04;100319.00;;;7.34;82.42
1480;BME280;732;51.698;4.886;2023-04-01T15:33:47;100188.53;;;6.28;83.28
1480;BME280;732;51.698;4.886;2023-04-01T15:36:33;100347.38;;;7.27;83.41
1480;BME280;732;51.698;4.886;2023-04-01T15:39:14;100309.84;;;6.80;83.70
1480;BME280;732;51.698;4.886;2023-04-01T15:42:03;100302.50;;;6.82;84.10
1480;BME280;732;51.698;4.886;2023-04-01T15:44:56;100349.31;;;7.02;84.13
1480;BME280;732;51.698;4.886;2023-04-01T15:47:37;100330.28;;;6.96;83.92
1480;BME280;732;51.698;4.886;2023-04-01T15:50:41;100364.53;;;6.68;84.99
1480;BME280;732;51.698;4.886;2023-04-01T15:53:26;100350.19;;;6.69;84.86
1480;BME280;732;51.698;4.886;2023-04-01T15:56:26;100344.84;;;6.77;84.80
1480;BME280;732;51.698;4.886;2023-04-01T15:59:09;100366.63;;;6.97;84.51
1480;BME280;732;51.698;4.886;2023-04-01T16:01:49;100357.84;;;6.72;84.55
1480;BME280;732;51.698;4.886;2023-04-01T16:04:40;100309.88;;;6.64;84.27
1480;BME280;732;51.698;4.886;2023-04-01T16:13:28;100262.13;;;6.38;84.04
1480;BME280;732;51.698;4.886;2023-04-01T16:16:08;100341.22;;;6.62;83.83
1480;BME280;732;51.698;4.886;2023-04-01T16:19:07;100382.69;;;6.73;84.92
1480;BME280;732;51.698;4.886;2023-04-01T16:21:46;100338.56;;;6.45;84.74
1480;BME280;732;51.698;4.886;2023-04-01T16:24:24;100392.19;;;6.42;85.86
1480;BME280;732;51.698;4.886;2023-04-01T16:27:04;100394.69;;;6.60;85.98
1480;BME280;732;51.698;4.886;2023-04-01T16:29:43;100390.34;;;6.43;86.39
1480;BME280;732;51.698;4.886;2023-04-01T16:32:34;100354.88;;;6.17;86.82
1480;BME280;732;51.698;4.886;2023-04-01T16:35:25;100370.72;;;6.44;86.23
1480;BME280;732;51.698;4.886;2023-04-01T16:38:05;100392.00;;;6.60;86.24